< < Back
Terminal Aerodrome Forecast


Current Version              Previous Versions:   1  2  3  4  5  6  7  8  9  

Terminal Aerodrome Forecast

079
FTUS42 KTAE 252116 AAA
TAFTLH
TAF AMD
KTLH 252116Z 2521/2618 08005KT P6SM VCTS BKN040CB
     FM260300 07003KT P6SM SCT100 BKN250=

Latest METAR

120
SAUS80 KWBC 261500 RRB
MTRTLH
METAR KTLH 261453Z 08006KT 10SM FEW020 FEW250 29/22 A3003 RMK AO2 SLP168
T02890222 50004


USA.gov is the U.S. government's official web portal to all federal, state and local government web resources and services.